sensor_id;sensor_type;location;lat;lon;timestamp;temperature;humidity
80176;DHT22;69501;42.124;24.722;2023-05-07T00:01:15;18.70;57.90
80176;DHT22;69501;42.124;24.722;2023-05-07T00:03:41;18.80;58.00
80176;DHT22;69501;42.124;24.722;2023-05-07T00:06:07;18.80;57.80
80176;DHT22;69501;42.124;24.722;2023-05-07T00:08:32;18.90;57.50
80176;DHT22;69501;42.124;24.722;2023-05-07T00:10:58;18.90;57.40
80176;DHT22;69501;42.124;24.722;2023-05-07T00:13:24;18.90;57.50
80176;DHT22;69501;42.124;24.722;2023-05-07T00:15:49;18.90;57.50
80176;DHT22;69501;42.124;24.722;2023-05-07T00:18:15;19.00;57.70
80176;DHT22;69501;42.124;24.722;2023-05-07T00:20:41;19.00;57.60
80176;DHT22;69501;42.124;24.722;2023-05-07T00:23:07;19.10;57.40
80176;DHT22;69501;42.124;24.722;2023-05-07T00:25:32;19.10;57.30
80176;DHT22;69501;42.124;24.722;2023-05-07T00:27:58;19.10;57.00
80176;DHT22;69501;42.124;24.722;2023-05-07T00:30:28;19.10;56.70
80176;DHT22;69501;42.124;24.722;2023-05-07T00:32:54;19.10;56.50
80176;DHT22;69501;42.124;24.722;2023-05-07T00:35:20;19.20;56.50
80176;DHT22;69501;42.124;24.722;2023-05-07T00:37:45;19.20;56.30
80176;DHT22;69501;42.124;24.722;2023-05-07T00:40:11;19.20;56.00
80176;DHT22;69501;42.124;24.722;2023-05-07T00:42:38;19.20;55.80
80176;DHT22;69501;42.124;24.722;2023-05-07T00:45:04;19.20;55.30
80176;DHT22;69501;42.124;24.722;2023-05-07T00:47:30;19.10;55.10
80176;DHT22;69501;42.124;24.722;2023-05-07T00:49:56;19.10;55.10
80176;DHT22;69501;42.124;24.722;2023-05-07T00:52:24;19.10;55.00
80176;DHT22;69501;42.124;24.722;2023-05-07T00:54:51;19.10;54.60
80176;DHT22;69501;42.124;24.722;2023-05-07T00:57:17;19.10;54.80
80176;DHT22;69501;42.124;24.722;2023-05-07T00:59:43;19.10;54.70
80176;DHT22;69501;42.124;24.722;2023-05-07T01:02:08;19.10;54.90
80176;DHT22;69501;42.124;24.722;2023-05-07T01:04:34;19.10;54.80
80176;DHT22;69501;42.124;24.722;2023-05-07T01:07:01;19.10;54.80
80176;DHT22;69501;42.124;24.722;2023-05-07T01:09:28;19.10;54.90
80176;DHT22;69501;42.124;24.722;2023-05-07T01:11:55;19.10;54.80
80176;DHT22;69501;42.124;24.722;2023-05-07T01:14:22;19.00;54.90
80176;DHT22;69501;42.124;24.722;2023-05-07T01:16:48;19.10;54.90
80176;DHT22;69501;42.124;24.722;2023-05-07T01:19:18;19.10;54.90
80176;DHT22;69501;42.124;24.722;2023-05-07T01:21:48;19.10;54.80
80176;DHT22;69501;42.124;24.722;2023-05-07T01:24:14;19.10;54.70
80176;DHT22;69501;42.124;24.722;2023-05-07T01:26:41;19.10;54.80
80176;DHT22;69501;42.124;24.722;2023-05-07T01:29:06;19.10;54.80
80176;DHT22;69501;42.124;24.722;2023-05-07T01:31:33;19.10;54.90
80176;DHT22;69501;42.124;24.722;2023-05-07T01:34:01;19.10;54.70
80176;DHT22;69501;42.124;24.722;2023-05-07T01:36:28;19.10;54.70
80176;DHT22;69501;42.124;24.722;2023-05-07T01:38:55;19.10;54.40
80176;DHT22;69501;42.124;24.722;2023-05-07T01:41:23;19.10;54.40
80176;DHT22;69501;42.124;24.722;2023-05-07T01:43:50;19.10;54.50
80176;DHT22;69501;42.124;24.722;2023-05-07T01:46:17;19.10;54.40
80176;DHT22;69501;42.124;24.722;2023-05-07T01:48:45;19.10;54.50
80176;DHT22;69501;42.124;24.722;2023-05-07T01:51:11;19.10;54.60
80176;DHT22;69501;42.124;24.722;2023-05-07T01:53:38;19.00;54.80
80176;DHT22;69501;42.124;24.722;2023-05-07T01:56:04;18.90;55.50
80176;DHT22;69501;42.124;24.722;2023-05-07T01:58:30;18.70;56.50
80176;DHT22;69501;42.124;24.722;2023-05-07T02:00:56;18.50;57.30
80176;DHT22;69501;42.124;24.722;2023-05-07T02:03:22;18.40;58.00
80176;DHT22;69501;42.124;24.722;2023-05-07T02:05:47;18.30;58.40
80176;DHT22;69501;42.124;24.722;2023-05-07T02:08:13;18.30;58.70
80176;DHT22;69501;42.124;24.722;2023-05-07T02:10:39;18.30;58.60
80176;DHT22;69501;42.124;24.722;2023-05-07T02:13:04;18.30;58.60
80176;DHT22;69501;42.124;24.722;2023-05-07T02:15:30;18.20;58.50
80176;DHT22;69501;42.124;24.722;2023-05-07T02:18:04;18.30;58.40
80176;DHT22;69501;42.124;24.722;2023-05-07T02:20:31;18.30;58.20
80176;DHT22;69501;42.124;24.722;2023-05-07T02:22:57;18.30;58.10
80176;DHT22;69501;42.124;24.722;2023-05-07T02:25:23;18.30;57.90
80176;DHT22;69501;42.124;24.722;2023-05-07T02:27:49;18.30;57.90
80176;DHT22;69501;42.124;24.722;2023-05-07T02:30:14;18.30;58.10
80176;DHT22;69501;42.124;24.722;2023-05-07T02:32:40;18.30;58.10
80176;DHT22;69501;42.124;24.722;2023-05-07T02:35:06;18.20;58.10
80176;DHT22;69501;42.124;24.722;2023-05-07T02:37:32;18.30;58.10
80176;DHT22;69501;42.124;24.722;2023-05-07T02:39:58;18.20;58.50
80176;DHT22;69501;42.124;24.722;2023-05-07T02:42:23;18.20;58.50
80176;DHT22;69501;42.124;24.722;2023-05-07T02:44:49;18.20;58.50
80176;DHT22;69501;42.124;24.722;2023-05-07T02:47:15;18.20;58.80
80176;DHT22;69501;42.124;24.722;2023-05-07T02:49:41;18.20;59.00
80176;DHT22;69501;42.124;24.722;2023-05-07T02:52:07;18.10;59.40
80176;DHT22;69501;42.124;24.722;2023-05-07T02:54:33;18.00;60.00
80176;DHT22;69501;42.124;24.722;2023-05-07T02:56:58;17.90;60.30
80176;DHT22;69501;42.124;24.722;2023-05-07T02:59:26;17.90;60.30
80176;DHT22;69501;42.124;24.722;2023-05-07T03:01:51;17.90;60.50
80176;DHT22;69501;42.124;24.722;2023-05-07T03:04:17;17.80;60.90
80176;DHT22;69501;42.124;24.722;2023-05-07T03:06:43;17.70;61.30
80176;DHT22;69501;42.124;24.722;2023-05-07T03:09:08;17.60;61.70
80176;DHT22;69501;42.124;24.722;2023-05-07T03:11:34;17.50;61.90
80176;DHT22;69501;42.124;24.722;2023-05-07T03:14:01;17.40;62.50
80176;DHT22;69501;42.124;24.722;2023-05-07T03:16:27;17.30;62.60
80176;DHT22;69501;42.124;24.722;2023-05-07T03:18:53;17.20;63.00
80176;DHT22;69501;42.124;24.722;2023-05-07T03:21:18;17.10;63.50
80176;DHT22;69501;42.124;24.722;2023-05-07T03:23:44;17.00;63.60
80176;DHT22;69501;42.124;24.722;2023-05-07T03:26:10;16.90;63.90
80176;DHT22;69501;42.124;24.722;2023-05-07T03:28:36;16.90;63.90
80176;DHT22;69501;42.124;24.722;2023-05-07T03:31:02;16.80;64.10
80176;DHT22;69501;42.124;24.722;2023-05-07T03:33:28;16.80;64.20
80176;DHT22;69501;42.124;24.722;2023-05-07T03:35:53;16.70;64.50
80176;DHT22;69501;42.124;24.722;2023-05-07T03:38:19;16.70;64.50
80176;DHT22;69501;42.124;24.722;2023-05-07T03:40:45;16.60;64.50
80176;DHT22;69501;42.124;24.722;2023-05-07T03:43:10;16.60;64.50
80176;DHT22;69501;42.124;24.722;2023-05-07T03:45:36;16.50;64.70
80176;DHT22;69501;42.124;24.722;2023-05-07T03:48:02;16.40;64.90
80176;DHT22;69501;42.124;24.722;2023-05-07T03:50:27;16.50;64.80
80176;DHT22;69501;42.124;24.722;2023-05-07T03:52:53;16.50;64.70
80176;DHT22;69501;42.124;24.722;2023-05-07T03:55:19;16.50;64.20
80176;DHT22;69501;42.124;24.722;2023-05-07T03:57:44;16.50;64.00
80176;DHT22;69501;42.124;24.722;2023-05-07T04:00:11;16.40;63.80
80176;DHT22;69501;42.124;24.722;2023-05-07T04:02:37;16.30;63.60
80176;DHT22;69501;42.124;24.722;2023-05-07T04:05:02;16.30;63.60
80176;DHT22;69501;42.124;24.722;2023-05-07T04:07:28;16.30;63.60
80176;DHT22;69501;42.124;24.722;2023-05-07T04:09:54;16.40;63.50
80176;DHT22;69501;42.124;24.722;2023-05-07T04:12:19;16.40;63.30
80176;DHT22;69501;42.124;24.722;2023-05-07T04:14:45;16.50;63.10
80176;DHT22;69501;42.124;24.722;2023-05-07T04:17:11;16.60;62.80
80176;DHT22;69501;42.124;24.722;2023-05-07T04:19:36;16.70;62.20
80176;DHT22;69501;42.124;24.722;2023-05-07T04:22:02;16.70;61.90
80176;DHT22;69501;42.124;24.722;2023-05-07T04:24:30;16.80;61.80
80176;DHT22;69501;42.124;24.722;2023-05-07T04:26:56;16.80;61.90
80176;DHT22;69501;42.124;24.722;2023-05-07T04:29:21;16.90;61.40
80176;DHT22;69501;42.124;24.722;2023-05-07T04:31:47;16.90;61.20
80176;DHT22;69501;42.124;24.722;2023-05-07T04:34:13;16.90;60.90
80176;DHT22;69501;42.124;24.722;2023-05-07T04:36:39;16.90;60.80
80176;DHT22;69501;42.124;24.722;2023-05-07T04:39:05;16.90;60.80
80176;DHT22;69501;42.124;24.722;2023-05-07T04:41:32;17.00;60.50
80176;DHT22;69501;42.124;24.722;2023-05-07T04:43:57;17.10;60.60
80176;DHT22;69501;42.124;24.722;2023-05-07T04:46:24;17.10;60.50
80176;DHT22;69501;42.124;24.722;2023-05-07T04:48:51;17.20;60.20
80176;DHT22;69501;42.124;24.722;2023-05-07T04:51:16;17.20;60.20
80176;DHT22;69501;42.124;24.722;2023-05-07T04:53:42;17.20;60.00
80176;DHT22;69501;42.124;24.722;2023-05-07T04:56:08;17.20;60.10
80176;DHT22;69501;42.124;24.722;2023-05-07T04:58:34;17.20;60.10
80176;DHT22;69501;42.124;24.722;2023-05-07T05:01:00;17.20;60.20
80176;DHT22;69501;42.124;24.722;2023-05-07T05:03:26;17.20;60.00
80176;DHT22;69501;42.124;24.722;2023-05-07T05:05:52;17.20;60.10
80176;DHT22;69501;42.124;24.722;2023-05-07T05:08:18;17.20;60.30
80176;DHT22;69501;42.124;24.722;2023-05-07T05:10:44;17.30;60.40
80176;DHT22;69501;42.124;24.722;2023-05-07T05:13:10;17.30;60.30
80176;DHT22;69501;42.124;24.722;2023-05-07T05:15:38;17.20;60.20
80176;DHT22;69501;42.124;24.722;2023-05-07T05:18:04;17.30;60.10
80176;DHT22;69501;42.124;24.722;2023-05-07T05:20:29;17.30;60.00
80176;DHT22;69501;42.124;24.722;2023-05-07T05:22:55;17.40;59.90
80176;DHT22;69501;42.124;24.722;2023-05-07T05:25:21;17.40;59.90
80176;DHT22;69501;42.124;24.722;2023-05-07T05:27:46;17.60;59.70
80176;DHT22;69501;42.124;24.722;2023-05-07T05:30:12;17.60;59.50
80176;DHT22;69501;42.124;24.722;2023-05-07T05:32:38;17.70;59.30
80176;DHT22;69501;42.124;24.722;2023-05-07T05:35:04;17.80;59.00
80176;DHT22;69501;42.124;24.722;2023-05-07T05:37:31;17.80;58.90
80176;DHT22;69501;42.124;24.722;2023-05-07T05:39:56;17.90;58.70
80176;DHT22;69501;42.124;24.722;2023-05-07T05:42:23;17.90;59.50
80176;DHT22;69501;42.124;24.722;2023-05-07T05:44:49;18.00;58.00
80176;DHT22;69501;42.124;24.722;2023-05-07T05:47:14;18.10;57.80
80176;DHT22;69501;42.124;24.722;2023-05-07T05:49:40;18.10;57.00
80176;DHT22;69501;42.124;24.722;2023-05-07T05:52:06;18.10;56.80
80176;DHT22;69501;42.124;24.722;2023-05-07T05:54:31;18.00;56.80
80176;DHT22;69501;42.124;24.722;2023-05-07T05:56:57;18.00;56.90
80176;DHT22;69501;42.124;24.722;2023-05-07T05:59:23;18.10;57.10
80176;DHT22;69501;42.124;24.722;2023-05-07T06:01:49;18.20;56.90
80176;DHT22;69501;42.124;24.722;2023-05-07T06:04:14;18.10;55.90
80176;DHT22;69501;42.124;24.722;2023-05-07T06:06:40;18.20;56.20
80176;DHT22;69501;42.124;24.722;2023-05-07T06:09:06;18.20;56.20
80176;DHT22;69501;42.124;24.722;2023-05-07T06:11:32;18.30;56.10
80176;DHT22;69501;42.124;24.722;2023-05-07T06:13:57;18.40;55.40
80176;DHT22;69501;42.124;24.722;2023-05-07T06:16:24;18.50;55.30
80176;DHT22;69501;42.124;24.722;2023-05-07T06:18:50;18.60;55.20
80176;DHT22;69501;42.124;24.722;2023-05-07T06:21:17;18.70;54.50
80176;DHT22;69501;42.124;24.722;2023-05-07T06:23:42;18.80;54.60
80176;DHT22;69501;42.124;24.722;2023-05-07T06:26:08;18.90;54.40
80176;DHT22;69501;42.124;24.722;2023-05-07T06:28:34;19.10;54.10
80176;DHT22;69501;42.124;24.722;2023-05-07T06:31:16;19.10;53.70
80176;DHT22;69501;42.124;24.722;2023-05-07T06:33:44;19.20;53.50
80176;DHT22;69501;42.124;24.722;2023-05-07T06:36:09;19.20;53.20
80176;DHT22;69501;42.124;24.722;2023-05-07T06:38:35;19.30;53.20
80176;DHT22;69501;42.124;24.722;2023-05-07T06:41:01;19.40;52.80
80176;DHT22;69501;42.124;24.722;2023-05-07T06:43:27;19.40;52.50
80176;DHT22;69501;42.124;24.722;2023-05-07T06:45:52;19.50;52.30
80176;DHT22;69501;42.124;24.722;2023-05-07T06:48:18;19.50;52.00
80176;DHT22;69501;42.124;24.722;2023-05-07T06:50:44;19.50;51.90
80176;DHT22;69501;42.124;24.722;2023-05-07T06:53:09;19.50;51.70
80176;DHT22;69501;42.124;24.722;2023-05-07T06:55:35;19.50;51.60
80176;DHT22;69501;42.124;24.722;2023-05-07T06:58:01;19.50;51.60
80176;DHT22;69501;42.124;24.722;2023-05-07T07:00:27;19.50;51.70
80176;DHT22;69501;42.124;24.722;2023-05-07T07:02:54;19.50;51.40
80176;DHT22;69501;42.124;24.722;2023-05-07T07:05:20;19.50;51.40
80176;DHT22;69501;42.124;24.722;2023-05-07T07:07:45;19.60;51.30
80176;DHT22;69501;42.124;24.722;2023-05-07T07:10:23;19.50;51.00
80176;DHT22;69501;42.124;24.722;2023-05-07T07:12:50;19.60;51.20
80176;DHT22;69501;42.124;24.722;2023-05-07T07:15:16;19.60;50.90
80176;DHT22;69501;42.124;24.722;2023-05-07T07:17:42;19.70;51.00
80176;DHT22;69501;42.124;24.722;2023-05-07T07:20:08;19.80;52.10
80176;DHT22;69501;42.124;24.722;2023-05-07T07:22:34;19.90;50.70
80176;DHT22;69501;42.124;24.722;2023-05-07T07:24:59;19.90;50.60
80176;DHT22;69501;42.124;24.722;2023-05-07T07:27:25;20.00;50.50
80176;DHT22;69501;42.124;24.722;2023-05-07T07:29:51;20.00;50.40
80176;DHT22;69501;42.124;24.722;2023-05-07T07:32:16;20.10;50.30
80176;DHT22;69501;42.124;24.722;2023-05-07T07:34:42;20.10;50.20
80176;DHT22;69501;42.124;24.722;2023-05-07T07:37:08;20.20;50.10
80176;DHT22;69501;42.124;24.722;2023-05-07T07:39:33;20.30;50.10
80176;DHT22;69501;42.124;24.722;2023-05-07T07:41:59;20.30;50.10
80176;DHT22;69501;42.124;24.722;2023-05-07T07:44:25;20.40;50.00
80176;DHT22;69501;42.124;24.722;2023-05-07T07:46:51;20.50;49.70
80176;DHT22;69501;42.124;24.722;2023-05-07T07:49:17;20.60;49.50
80176;DHT22;69501;42.124;24.722;2023-05-07T07:51:43;20.60;49.10
80176;DHT22;69501;42.124;24.722;2023-05-07T07:54:08;20.70;49.00
80176;DHT22;69501;42.124;24.722;2023-05-07T07:56:34;20.80;49.00
80176;DHT22;69501;42.124;24.722;2023-05-07T07:59:00;20.80;48.30
80176;DHT22;69501;42.124;24.722;2023-05-07T08:01:26;20.80;48.20
80176;DHT22;69501;42.124;24.722;2023-05-07T08:03:52;20.90;48.20
80176;DHT22;69501;42.124;24.722;2023-05-07T08:06:18;20.90;48.50
80176;DHT22;69501;42.124;24.722;2023-05-07T08:08:44;21.00;48.40
80176;DHT22;69501;42.124;24.722;2023-05-07T08:11:10;21.00;48.30
80176;DHT22;69501;42.124;24.722;2023-05-07T08:13:36;21.10;48.00
80176;DHT22;69501;42.124;24.722;2023-05-07T08:16:02;21.10;47.60
80176;DHT22;69501;42.124;24.722;2023-05-07T08:18:28;21.10;47.70
80176;DHT22;69501;42.124;24.722;2023-05-07T08:20:54;21.10;47.40
80176;DHT22;69501;42.124;24.722;2023-05-07T08:23:20;21.10;47.10
80176;DHT22;69501;42.124;24.722;2023-05-07T08:25:46;21.10;47.20
80176;DHT22;69501;42.124;24.722;2023-05-07T08:28:12;21.10;47.40
80176;DHT22;69501;42.124;24.722;2023-05-07T08:30:37;21.10;47.50
80176;DHT22;69501;42.124;24.722;2023-05-07T08:33:03;21.20;47.50
80176;DHT22;69501;42.124;24.722;2023-05-07T08:35:28;21.20;47.50
80176;DHT22;69501;42.124;24.722;2023-05-07T08:37:55;21.30;47.50
80176;DHT22;69501;42.124;24.722;2023-05-07T08:40:26;21.40;47.70
80176;DHT22;69501;42.124;24.722;2023-05-07T08:42:56;21.50;47.50
80176;DHT22;69501;42.124;24.722;2023-05-07T08:45:23;21.60;47.00
80176;DHT22;69501;42.124;24.722;2023-05-07T08:47:52;21.60;46.70
80176;DHT22;69501;42.124;24.722;2023-05-07T08:50:20;21.70;46.50
80176;DHT22;69501;42.124;24.722;2023-05-07T08:52:47;21.70;46.40
80176;DHT22;69501;42.124;24.722;2023-05-07T08:55:13;21.70;46.00
80176;DHT22;69501;42.124;24.722;2023-05-07T08:57:38;21.70;45.10
80176;DHT22;69501;42.124;24.722;2023-05-07T09:00:05;21.70;44.40
80176;DHT22;69501;42.124;24.722;2023-05-07T09:02:32;21.70;44.40
80176;DHT22;69501;42.124;24.722;2023-05-07T09:04:58;21.80;44.30
80176;DHT22;69501;42.124;24.722;2023-05-07T09:07:25;21.80;44.50
80176;DHT22;69501;42.124;24.722;2023-05-07T09:09:51;21.90;44.80
80176;DHT22;69501;42.124;24.722;2023-05-07T09:12:18;21.90;44.00
80176;DHT22;69501;42.124;24.722;2023-05-07T09:14:45;21.90;43.90
80176;DHT22;69501;42.124;24.722;2023-05-07T09:17:11;21.90;43.60
80176;DHT22;69501;42.124;24.722;2023-05-07T09:19:36;22.00;43.30
80176;DHT22;69501;42.124;24.722;2023-05-07T09:22:04;22.00;43.10
80176;DHT22;69501;42.124;24.722;2023-05-07T09:24:30;22.10;42.40
80176;DHT22;69501;42.124;24.722;2023-05-07T09:27:01;22.10;41.50
80176;DHT22;69501;42.124;24.722;2023-05-07T09:29:28;22.20;40.80
80176;DHT22;69501;42.124;24.722;2023-05-07T09:32:05;22.20;41.00
80176;DHT22;69501;42.124;24.722;2023-05-07T09:34:31;22.30;41.00
80176;DHT22;69501;42.124;24.722;2023-05-07T09:37:00;22.40;40.30
80176;DHT22;69501;42.124;24.722;2023-05-07T09:39:26;22.50;39.20
80176;DHT22;69501;42.124;24.722;2023-05-07T09:41:52;22.50;38.70
80176;DHT22;69501;42.124;24.722;2023-05-07T09:44:21;22.60;37.80
80176;DHT22;69501;42.124;24.722;2023-05-07T09:46:53;22.70;36.50
80176;DHT22;69501;42.124;24.722;2023-05-07T09:49:23;22.80;35.90
80176;DHT22;69501;42.124;24.722;2023-05-07T09:51:50;22.90;35.60
80176;DHT22;69501;42.124;24.722;2023-05-07T09:54:17;22.90;35.40
80176;DHT22;69501;42.124;24.722;2023-05-07T09:56:46;23.00;35.40
80176;DHT22;69501;42.124;24.722;2023-05-07T09:59:14;23.10;35.50
80176;DHT22;69501;42.124;24.722;2023-05-07T10:01:42;23.20;35.40
80176;DHT22;69501;42.124;24.722;2023-05-07T10:04:08;23.30;35.40
80176;DHT22;69501;42.124;24.722;2023-05-07T10:06:35;23.40;35.10
80176;DHT22;69501;42.124;24.722;2023-05-07T10:09:02;23.40;34.50
80176;DHT22;69501;42.124;24.722;2023-05-07T10:11:28;23.40;34.30
80176;DHT22;69501;42.124;24.722;2023-05-07T10:13:54;23.50;34.90
80176;DHT22;69501;42.124;24.722;2023-05-07T10:16:21;23.50;35.10
80176;DHT22;69501;42.124;24.722;2023-05-07T10:18:47;23.60;35.00
80176;DHT22;69501;42.124;24.722;2023-05-07T10:21:19;23.70;34.80
80176;DHT22;69501;42.124;24.722;2023-05-07T10:23:48;23.80;33.70
80176;DHT22;69501;42.124;24.722;2023-05-07T10:26:15;23.90;33.40
80176;DHT22;69501;42.124;24.722;2023-05-07T10:28:55;24.00;33.60
80176;DHT22;69501;42.124;24.722;2023-05-07T10:33:55;24.20;33.40
80176;DHT22;69501;42.124;24.722;2023-05-07T10:36:22;24.30;33.40
80176;DHT22;69501;42.124;24.722;2023-05-07T10:38:49;24.50;33.00
80176;DHT22;69501;42.124;24.722;2023-05-07T10:41:15;24.70;32.80
80176;DHT22;69501;42.124;24.722;2023-05-07T10:43:43;24.90;32.10
80176;DHT22;69501;42.124;24.722;2023-05-07T10:51:34;25.10;31.20
80176;DHT22;69501;42.124;24.722;2023-05-07T10:56:35;25.40;29.70
80176;DHT22;69501;42.124;24.722;2023-05-07T11:04:24;25.60;29.30
80176;DHT22;69501;42.124;24.722;2023-05-07T11:10:04;25.70;29.10
80176;DHT22;69501;42.124;24.722;2023-05-07T11:15:13;25.90;29.10
80176;DHT22;69501;42.124;24.722;2023-05-07T11:17:57;26.10;29.10
80176;DHT22;69501;42.124;24.722;2023-05-07T11:20:56;26.30;28.60
80176;DHT22;69501;42.124;24.722;2023-05-07T11:26:07;26.50;28.10
80176;DHT22;69501;42.124;24.722;2023-05-07T11:28:42;26.50;27.90
80176;DHT22;69501;42.124;24.722;2023-05-07T11:31:09;26.60;27.40
80176;DHT22;69501;42.124;24.722;2023-05-07T11:33:36;26.70;27.60
80176;DHT22;69501;42.124;24.722;2023-05-07T11:36:04;26.80;27.50
80176;DHT22;69501;42.124;24.722;2023-05-07T11:38:30;27.00;26.90
80176;DHT22;69501;42.124;24.722;2023-05-07T11:41:00;27.10;27.00
80176;DHT22;69501;42.124;24.722;2023-05-07T11:43:33;27.10;27.00
80176;DHT22;69501;42.124;24.722;2023-05-07T11:46:11;27.20;26.70
80176;DHT22;69501;42.124;24.722;2023-05-07T11:48:37;27.20;26.50
80176;DHT22;69501;42.124;24.722;2023-05-07T11:51:05;27.30;26.40
80176;DHT22;69501;42.124;24.722;2023-05-07T11:53:42;27.40;26.10
80176;DHT22;69501;42.124;24.722;2023-05-07T11:56:12;27.50;26.30
80176;DHT22;69501;42.124;24.722;2023-05-07T11:58:39;27.60;26.30
80176;DHT22;69501;42.124;24.722;2023-05-07T12:01:07;27.80;25.70
80176;DHT22;69501;42.124;24.722;2023-05-07T12:03:35;28.00;25.30
80176;DHT22;69501;42.124;24.722;2023-05-07T12:06:02;28.10;25.10
80176;DHT22;69501;42.124;24.722;2023-05-07T12:08:31;28.10;25.10
80176;DHT22;69501;42.124;24.722;2023-05-07T12:10:56;28.30;25.50
80176;DHT22;69501;42.124;24.722;2023-05-07T12:13:24;28.30;25.50
80176;DHT22;69501;42.124;24.722;2023-05-07T12:15:54;28.40;25.40
80176;DHT22;69501;42.124;24.722;2023-05-07T12:18:21;28.40;24.90
80176;DHT22;69501;42.124;24.722;2023-05-07T12:20:47;28.40;24.90
80176;DHT22;69501;42.124;24.722;2023-05-07T12:23:14;28.20;24.60
80176;DHT22;69501;42.124;24.722;2023-05-07T12:25:41;28.10;24.70
80176;DHT22;69501;42.124;24.722;2023-05-07T12:28:14;27.80;24.70
80176;DHT22;69501;42.124;24.722;2023-05-07T12:30:42;27.60;25.00
80176;DHT22;69501;42.124;24.722;2023-05-07T12:33:09;27.40;25.30
80176;DHT22;69501;42.124;24.722;2023-05-07T12:35:39;27.40;25.70
80176;DHT22;69501;42.124;24.722;2023-05-07T12:38:10;27.30;25.70
80176;DHT22;69501;42.124;24.722;2023-05-07T12:40:41;27.20;25.80
80176;DHT22;69501;42.124;24.722;2023-05-07T12:43:07;27.30;26.00
80176;DHT22;69501;42.124;24.722;2023-05-07T12:45:37;27.60;26.10
80176;DHT22;69501;42.124;24.722;2023-05-07T12:48:06;27.90;25.90
80176;DHT22;69501;42.124;24.722;2023-05-07T12:50:33;28.10;24.90
80176;DHT22;69501;42.124;24.722;2023-05-07T12:52:59;28.30;24.60
80176;DHT22;69501;42.124;24.722;2023-05-07T12:55:24;28.50;24.50
80176;DHT22;69501;42.124;24.722;2023-05-07T12:57:51;28.60;24.60
80176;DHT22;69501;42.124;24.722;2023-05-07T13:00:34;28.70;24.10
80176;DHT22;69501;42.124;24.722;2023-05-07T13:03:00;28.90;24.20
80176;DHT22;69501;42.124;24.722;2023-05-07T13:05:26;29.00;24.10
80176;DHT22;69501;42.124;24.722;2023-05-07T13:07:58;29.10;24.40
80176;DHT22;69501;42.124;24.722;2023-05-07T13:10:24;29.10;24.20
80176;DHT22;69501;42.124;24.722;2023-05-07T13:12:50;29.20;24.20
80176;DHT22;69501;42.124;24.722;2023-05-07T13:15:16;29.30;23.90
80176;DHT22;69501;42.124;24.722;2023-05-07T13:17:42;29.30;23.60
80176;DHT22;69501;42.124;24.722;2023-05-07T13:20:11;29.40;24.00
80176;DHT22;69501;42.124;24.722;2023-05-07T13:22:38;29.40;23.70
80176;DHT22;69501;42.124;24.722;2023-05-07T13:25:04;29.40;23.70
80176;DHT22;69501;42.124;24.722;2023-05-07T13:27:30;29.40;23.80
80176;DHT22;69501;42.124;24.722;2023-05-07T13:29:56;29.60;23.80
80176;DHT22;69501;42.124;24.722;2023-05-07T13:32:22;29.80;23.50
80176;DHT22;69501;42.124;24.722;2023-05-07T13:34:48;30.10;23.30
80176;DHT22;69501;42.124;24.722;2023-05-07T13:37:13;30.30;22.70
80176;DHT22;69501;42.124;24.722;2023-05-07T13:39:39;30.50;22.50
80176;DHT22;69501;42.124;24.722;2023-05-07T13:42:06;30.40;22.10
80176;DHT22;69501;42.124;24.722;2023-05-07T13:44:32;30.50;21.80
80176;DHT22;69501;42.124;24.722;2023-05-07T13:46:57;30.30;22.00
80176;DHT22;69501;42.124;24.722;2023-05-07T13:49:25;30.30;22.70
80176;DHT22;69501;42.124;24.722;2023-05-07T13:51:51;30.50;22.80
80176;DHT22;69501;42.124;24.722;2023-05-07T13:54:17;30.80;22.60
80176;DHT22;69501;42.124;24.722;2023-05-07T13:56:42;31.00;22.20
80176;DHT22;69501;42.124;24.722;2023-05-07T13:59:08;31.10;21.60
80176;DHT22;69501;42.124;24.722;2023-05-07T14:01:34;31.30;21.40
80176;DHT22;69501;42.124;24.722;2023-05-07T14:04:00;31.40;21.40
80176;DHT22;69501;42.124;24.722;2023-05-07T14:06:25;31.60;21.40
80176;DHT22;69501;42.124;24.722;2023-05-07T14:08:51;31.70;20.70
80176;DHT22;69501;42.124;24.722;2023-05-07T14:11:17;31.80;20.80
80176;DHT22;69501;42.124;24.722;2023-05-07T14:13:43;31.80;21.50
80176;DHT22;69501;42.124;24.722;2023-05-07T14:16:08;32.00;20.60
80176;DHT22;69501;42.124;24.722;2023-05-07T14:18:34;32.00;20.30
80176;DHT22;69501;42.124;24.722;2023-05-07T14:21:02;32.00;20.20
80176;DHT22;69501;42.124;24.722;2023-05-07T14:23:28;32.00;20.10
80176;DHT22;69501;42.124;24.722;2023-05-07T14:25:53;31.90;19.90
80176;DHT22;69501;42.124;24.722;2023-05-07T14:28:19;31.80;20.10
80176;DHT22;69501;42.124;24.722;2023-05-07T14:30:45;31.60;20.00
80176;DHT22;69501;42.124;24.722;2023-05-07T14:33:11;31.40;20.50
80176;DHT22;69501;42.124;24.722;2023-05-07T14:35:36;31.40;20.80
80176;DHT22;69501;42.124;24.722;2023-05-07T14:38:02;31.40;20.90
80176;DHT22;69501;42.124;24.722;2023-05-07T14:40:28;31.60;21.70
80176;DHT22;69501;42.124;24.722;2023-05-07T14:42:53;31.70;20.30
80176;DHT22;69501;42.124;24.722;2023-05-07T14:45:20;31.80;20.20
80176;DHT22;69501;42.124;24.722;2023-05-07T14:47:46;31.80;20.10
80176;DHT22;69501;42.124;24.722;2023-05-07T14:50:12;31.80;20.40
80176;DHT22;69501;42.124;24.722;2023-05-07T14:52:37;31.80;20.30
80176;DHT22;69501;42.124;24.722;2023-05-07T14:55:04;31.90;20.20
80176;DHT22;69501;42.124;24.722;2023-05-07T14:57:30;32.00;20.20
80176;DHT22;69501;42.124;24.722;2023-05-07T14:59:58;32.00;20.20
80176;DHT22;69501;42.124;24.722;2023-05-07T15:02:23;32.00;20.00
80176;DHT22;69501;42.124;24.722;2023-05-07T15:04:49;32.00;19.90
80176;DHT22;69501;42.124;24.722;2023-05-07T15:07:15;32.00;19.90
80176;DHT22;69501;42.124;24.722;2023-05-07T15:09:42;32.10;19.80
80176;DHT22;69501;42.124;24.722;2023-05-07T15:12:07;32.00;19.60
80176;DHT22;69501;42.124;24.722;2023-05-07T15:14:34;32.00;19.70
80176;DHT22;69501;42.124;24.722;2023-05-07T15:17:00;32.00;19.70
80176;DHT22;69501;42.124;24.722;2023-05-07T15:19:26;32.00;19.50
80176;DHT22;69501;42.124;24.722;2023-05-07T15:21:55;31.80;19.60
80176;DHT22;69501;42.124;24.722;2023-05-07T15:24:22;31.70;19.80
80176;DHT22;69501;42.124;24.722;2023-05-07T15:26:48;31.70;19.90
80176;DHT22;69501;42.124;24.722;2023-05-07T15:29:13;31.60;19.60
80176;DHT22;69501;42.124;24.722;2023-05-07T15:31:39;31.40;20.60
80176;DHT22;69501;42.124;24.722;2023-05-07T15:34:05;31.10;20.20
80176;DHT22;69501;42.124;24.722;2023-05-07T15:36:30;30.90;20.30